createdAt,value
2023-05-05T00:00:57.280Z,2.85
2023-05-05T00:03:23.833Z,3.45
2023-05-05T00:05:50.375Z,3.45
2023-05-05T00:08:16.769Z,4.00
2023-05-05T00:10:43.126Z,3.60
2023-05-05T00:13:09.639Z,3.25
2023-05-05T00:15:36.139Z,3.10
2023-05-05T00:18:02.550Z,3.67
2023-05-05T00:20:28.989Z,2.85
2023-05-05T00:22:55.360Z,3.70
2023-05-05T00:25:21.827Z,3.88
2023-05-05T00:27:48.212Z,3.65
2023-05-05T00:30:14.631Z,4.07
2023-05-05T00:32:41.133Z,4.32
2023-05-05T00:35:07.627Z,3.55
2023-05-05T00:37:34.082Z,3.60
2023-05-05T00:40:00.548Z,5.43
2023-05-05T00:42:26.946Z,4.13
2023-05-05T00:44:53.379Z,3.60
2023-05-05T00:47:19.794Z,2.65
2023-05-05T00:49:46.237Z,3.90
2023-05-05T00:52:12.635Z,2.97
2023-05-05T00:54:39.025Z,2.63
2023-05-05T00:57:05.432Z,2.53
2023-05-05T00:59:31.813Z,3.10
2023-05-05T01:01:58.310Z,4.68
2023-05-05T01:04:24.848Z,3.05
2023-05-05T01:06:51.239Z,3.28
2023-05-05T01:09:17.682Z,3.20
2023-05-05T01:11:44.131Z,3.20
2023-05-05T01:14:10.538Z,3.88
2023-05-05T01:16:37.020Z,3.00
2023-05-05T01:19:03.513Z,2.97
2023-05-05T01:21:29.970Z,3.50
2023-05-05T01:23:56.412Z,3.70
2023-05-05T01:26:22.854Z,3.88
2023-05-05T01:28:49.282Z,4.35
2023-05-05T01:31:15.727Z,4.28
2023-05-05T01:33:42.102Z,3.72
2023-05-05T01:36:08.539Z,3.10
2023-05-05T01:38:34.998Z,3.63
2023-05-05T01:41:01.471Z,3.33
2023-05-05T01:43:27.896Z,5.72
2023-05-05T01:45:54.311Z,4.20
2023-05-05T01:48:20.756Z,3.95
2023-05-05T01:50:47.154Z,3.90
2023-05-05T01:53:13.592Z,4.00
2023-05-05T01:55:40.078Z,5.47
2023-05-05T01:58:06.517Z,3.70
2023-05-05T02:00:32.911Z,4.03
2023-05-05T02:02:59.409Z,3.35
2023-05-05T02:05:25.939Z,3.80
2023-05-05T02:07:52.355Z,5.82
2023-05-05T02:10:18.788Z,4.20
2023-05-05T02:12:45.207Z,3.97
2023-05-05T02:15:11.607Z,3.92
2023-05-05T02:17:38.018Z,4.53
2023-05-05T02:20:04.645Z,4.90
2023-05-05T02:22:31.118Z,4.70
2023-05-05T02:24:57.492Z,4.25
2023-05-05T02:27:23.904Z,4.82
2023-05-05T02:29:50.328Z,4.20
2023-05-05T02:32:16.772Z,3.92
2023-05-05T02:34:43.164Z,6.43
2023-05-05T02:37:09.705Z,4.22
2023-05-05T02:39:36.125Z,4.35
2023-05-05T02:42:02.529Z,5.30
2023-05-05T02:44:28.944Z,3.80
2023-05-05T02:46:55.447Z,3.90
2023-05-05T02:49:21.929Z,3.60
2023-05-05T02:51:48.379Z,4.90
2023-05-05T02:54:14.772Z,4.72
2023-05-05T02:56:41.189Z,4.22
2023-05-05T02:59:07.696Z,4.60
2023-05-05T03:01:34.119Z,4.70
2023-05-05T03:04:00.627Z,4.57
2023-05-05T03:06:27.056Z,6.50
2023-05-05T03:08:53.514Z,4.25
2023-05-05T03:11:19.895Z,4.70
2023-05-05T03:13:46.274Z,4.85
2023-05-05T03:16:12.766Z,4.05
2023-05-05T03:18:39.222Z,4.45
2023-05-05T03:21:05.596Z,4.53
2023-05-05T03:23:31.967Z,4.65
2023-05-05T03:25:58.368Z,4.60
2023-05-05T03:28:24.812Z,4.85
2023-05-05T03:30:51.179Z,4.82
2023-05-05T03:33:17.626Z,4.72
2023-05-05T03:35:44.077Z,4.13
2023-05-05T03:38:10.526Z,4.88
2023-05-05T03:40:44.066Z,4.32
2023-05-05T03:43:11.167Z,4.40
2023-05-05T03:45:37.744Z,5.60
2023-05-05T03:48:04.361Z,4.47
2023-05-05T03:50:30.831Z,4.47
2023-05-05T03:52:57.220Z,5.18
2023-05-05T03:55:23.669Z,5.15
2023-05-05T03:57:50.134Z,5.82
2023-05-05T04:00:16.537Z,5.43
2023-05-05T04:02:42.990Z,5.90
2023-05-05T04:05:09.462Z,5.68
2023-05-05T04:07:35.864Z,5.22
2023-05-05T04:10:02.300Z,4.97
2023-05-05T04:12:28.701Z,5.18
2023-05-05T04:14:55.076Z,5.40
2023-05-05T04:17:21.508Z,6.60
2023-05-05T04:19:47.944Z,6.07
2023-05-05T04:22:14.332Z,5.88
2023-05-05T04:24:40.771Z,7.25
2023-05-05T04:27:07.158Z,6.25
2023-05-05T04:29:33.591Z,5.70
2023-05-05T04:31:59.971Z,6.57
2023-05-05T04:34:26.408Z,6.00
2023-05-05T04:36:52.792Z,5.55
2023-05-05T04:39:19.253Z,6.65
2023-05-05T04:41:45.706Z,6.93
2023-05-05T04:44:12.137Z,6.40
2023-05-05T04:46:38.704Z,6.57
2023-05-05T04:49:05.163Z,7.10
2023-05-05T04:51:31.579Z,6.80
2023-05-05T04:53:57.938Z,6.18
2023-05-05T04:56:24.355Z,7.40
2023-05-05T04:58:50.711Z,7.18
2023-05-05T05:01:17.082Z,6.53
2023-05-05T05:03:43.578Z,7.13
2023-05-05T05:06:10.099Z,5.78
2023-05-05T05:08:36.496Z,8.13
2023-05-05T05:11:02.950Z,6.30
2023-05-05T05:13:29.347Z,7.07
2023-05-05T05:15:55.734Z,6.00
2023-05-05T05:18:22.148Z,6.07
2023-05-05T05:20:48.585Z,7.60
2023-05-05T05:23:15.014Z,7.75
2023-05-05T05:25:41.412Z,7.97
2023-05-05T05:28:10.719Z,7.00
2023-05-05T05:30:37.468Z,7.20
2023-05-05T05:33:04.024Z,6.68
2023-05-05T05:35:30.490Z,6.53
2023-05-05T05:37:56.884Z,7.65
2023-05-05T05:40:23.324Z,6.32
2023-05-05T05:42:49.769Z,6.10
2023-05-05T05:45:16.212Z,6.65
2023-05-05T05:47:42.631Z,7.13
2023-05-05T05:50:09.345Z,7.10
2023-05-05T05:52:36.016Z,6.43
2023-05-05T05:55:02.414Z,6.80
2023-05-05T05:57:28.852Z,6.85
2023-05-05T05:59:55.240Z,7.63
2023-05-05T06:02:21.740Z,6.97
2023-05-05T06:04:48.194Z,6.20
2023-05-05T06:07:14.571Z,5.50
2023-05-05T06:09:40.986Z,5.90
2023-05-05T06:12:07.452Z,5.38
2023-05-05T06:14:33.845Z,6.38
2023-05-05T06:17:00.331Z,6.70
2023-05-05T06:19:26.776Z,6.70
2023-05-05T06:21:53.220Z,6.43
2023-05-05T06:24:19.620Z,6.53
2023-05-05T06:26:46.047Z,7.15
2023-05-05T06:29:12.570Z,5.85
2023-05-05T06:31:39.203Z,5.55
2023-05-05T06:34:05.637Z,6.57
2023-05-05T06:36:32.136Z,5.85
2023-05-05T06:38:58.614Z,5.97
2023-05-05T06:41:25.000Z,4.78
2023-05-05T06:43:51.379Z,5.05
2023-05-05T06:46:17.828Z,5.43
2023-05-05T06:48:44.254Z,6.25
2023-05-05T06:51:10.669Z,5.88
2023-05-05T06:53:37.118Z,5.30
2023-05-05T06:56:03.745Z,4.75
2023-05-05T06:58:30.235Z,8.25
2023-05-05T07:00:56.669Z,6.20
2023-05-05T07:03:23.242Z,6.63
2023-05-05T07:05:49.755Z,6.90
2023-05-05T07:08:16.187Z,6.78
2023-05-05T07:10:42.563Z,8.80
2023-05-05T07:13:09.137Z,7.25
2023-05-05T07:15:35.677Z,6.10
2023-05-05T07:18:02.337Z,8.52
2023-05-05T07:20:28.885Z,8.85
2023-05-05T07:22:55.314Z,6.97
2023-05-05T07:25:21.771Z,6.03
2023-05-05T07:27:48.234Z,7.40
2023-05-05T07:30:18.144Z,6.95
2023-05-05T07:32:45.347Z,7.57
2023-05-05T07:35:11.789Z,8.30
2023-05-05T07:37:38.224Z,7.22
2023-05-05T07:40:04.726Z,5.95
2023-05-05T07:42:31.153Z,6.13
2023-05-05T07:44:57.510Z,5.85
2023-05-05T07:47:24.040Z,5.05
2023-05-05T07:49:50.538Z,6.20
2023-05-05T07:52:16.957Z,6.25
2023-05-05T07:54:43.394Z,4.18
2023-05-05T07:57:09.918Z,3.90
2023-05-05T07:59:36.326Z,4.82
2023-05-05T08:02:02.771Z,5.93
2023-05-05T08:04:29.293Z,5.55
2023-05-05T08:06:55.853Z,4.88
2023-05-05T08:09:22.314Z,4.43
2023-05-05T08:11:48.772Z,4.95
2023-05-05T08:14:15.181Z,5.20
2023-05-05T08:16:41.642Z,4.20
2023-05-05T08:19:21.164Z,3.20
2023-05-05T08:21:54.460Z,3.58
2023-05-05T08:24:20.872Z,3.45
2023-05-05T08:26:47.302Z,3.45
2023-05-05T08:29:13.668Z,3.63
2023-05-05T08:31:40.228Z,3.28
2023-05-05T08:34:09.093Z,3.25
2023-05-05T08:36:35.485Z,3.63
2023-05-05T08:39:01.921Z,3.05
2023-05-05T08:41:28.303Z,4.22
2023-05-05T08:43:54.721Z,2.60
2023-05-05T08:46:21.148Z,2.45
2023-05-05T08:48:47.588Z,3.55
2023-05-05T08:51:14.020Z,2.45
2023-05-05T08:53:40.631Z,2.53
2023-05-05T08:56:07.049Z,2.35
2023-05-05T08:58:33.428Z,2.88
2023-05-05T09:00:59.911Z,2.65
2023-05-05T09:03:26.329Z,4.30
2023-05-05T09:05:52.782Z,3.40
2023-05-05T09:08:19.256Z,3.17
2023-05-05T09:10:45.710Z,1.88
2023-05-05T09:13:12.136Z,3.50
2023-05-05T09:15:38.573Z,1.15
2023-05-05T09:18:05.003Z,1.95
2023-05-05T09:20:31.419Z,2.38
2023-05-05T09:22:57.859Z,1.83
2023-05-05T09:25:24.312Z,3.63
2023-05-05T09:27:50.679Z,2.03
2023-05-05T09:30:17.090Z,2.95
2023-05-05T09:32:43.515Z,1.88
2023-05-05T09:35:10.185Z,1.77
2023-05-05T09:37:36.673Z,3.20
2023-05-05T09:40:03.100Z,1.90
2023-05-05T09:42:29.483Z,2.35
2023-05-05T09:44:57.834Z,2.58
2023-05-05T09:47:29.552Z,1.92
2023-05-05T09:49:56.585Z,2.05
2023-05-05T09:52:22.983Z,1.42
2023-05-05T09:54:49.362Z,1.05
2023-05-05T09:57:15.777Z,2.88
2023-05-05T09:59:42.160Z,1.05
2023-05-05T10:02:08.580Z,2.88
2023-05-05T10:04:35.040Z,2.13
2023-05-05T10:07:01.429Z,2.42
2023-05-05T10:09:27.840Z,1.85
2023-05-05T10:11:54.296Z,2.67
2023-05-05T10:14:20.734Z,0.98
2023-05-05T10:16:47.393Z,0.95
2023-05-05T10:19:13.937Z,1.15
2023-05-05T10:21:41.921Z,2.25
2023-05-05T10:24:08.570Z,3.50
2023-05-05T10:26:35.034Z,1.27
2023-05-05T10:29:01.506Z,1.60
2023-05-05T10:31:27.929Z,1.73
2023-05-05T10:33:54.431Z,1.20
2023-05-05T10:36:20.935Z,0.82
2023-05-05T10:38:47.606Z,1.25
2023-05-05T10:41:14.038Z,0.80
2023-05-05T10:43:40.409Z,1.33
2023-05-05T10:46:07.020Z,0.80
2023-05-05T10:48:33.502Z,3.20
2023-05-05T10:50:59.967Z,1.42
2023-05-05T10:53:26.373Z,1.20
2023-05-05T10:55:52.774Z,1.75
2023-05-05T10:58:19.160Z,1.27
2023-05-05T11:00:45.849Z,1.27
2023-05-05T11:03:12.458Z,1.88
2023-05-05T11:05:38.944Z,2.47
2023-05-05T11:08:05.336Z,0.93
2023-05-05T11:10:31.778Z,1.88
2023-05-05T11:12:58.304Z,1.42
2023-05-05T11:15:24.733Z,1.05
2023-05-05T11:17:51.184Z,1.30
2023-05-05T11:20:17.708Z,2.50
2023-05-05T11:22:44.158Z,2.60
2023-05-05T11:25:10.616Z,1.20
2023-05-05T11:27:37.041Z,2.45
2023-05-05T11:30:03.506Z,1.48
2023-05-05T11:32:29.980Z,1.23
2023-05-05T11:34:56.501Z,1.55
2023-05-05T11:37:22.932Z,1.10
2023-05-05T11:39:49.367Z,1.13
2023-05-05T11:42:15.764Z,1.20
2023-05-05T11:44:42.160Z,1.27
2023-05-05T11:47:08.534Z,1.15
2023-05-05T11:49:34.955Z,1.13
2023-05-05T11:52:01.411Z,2.38
2023-05-05T11:54:27.846Z,1.80
2023-05-05T11:56:54.310Z,0.98
2023-05-05T11:59:20.718Z,1.60
2023-05-05T12:01:47.174Z,1.25
2023-05-05T12:04:13.750Z,1.35
2023-05-05T12:06:40.241Z,1.42
2023-05-05T12:09:06.640Z,1.25
2023-05-05T12:11:33.104Z,2.90
2023-05-05T12:13:59.562Z,1.75
2023-05-05T12:16:26.022Z,3.05
2023-05-05T12:18:52.500Z,2.25
2023-05-05T12:21:18.962Z,2.05
2023-05-05T12:23:45.583Z,3.72
2023-05-05T12:26:12.039Z,4.03
2023-05-05T12:28:38.410Z,1.98
2023-05-05T12:31:04.833Z,1.73
2023-05-05T12:33:31.249Z,1.10
2023-05-05T12:35:57.679Z,0.50
2023-05-05T12:38:24.092Z,1.35
2023-05-05T12:40:50.541Z,0.95
2023-05-05T12:43:17.011Z,8.80
2023-05-05T12:45:43.521Z,1.33
2023-05-05T12:48:10.238Z,3.00
2023-05-05T12:50:36.615Z,3.42
2023-05-05T12:53:03.027Z,2.67
2023-05-05T12:55:29.452Z,3.33
2023-05-05T12:57:55.825Z,1.52
2023-05-05T13:00:22.243Z,3.28
2023-05-05T13:02:48.677Z,3.58
2023-05-05T13:05:15.124Z,3.40
2023-05-05T13:07:41.578Z,3.58
2023-05-05T13:10:08.086Z,2.45
2023-05-05T13:12:34.614Z,1.42
2023-05-05T13:15:01.049Z,2.03
2023-05-05T13:17:27.434Z,0.88
2023-05-05T13:19:53.829Z,3.33
2023-05-05T13:22:20.250Z,2.45
2023-05-05T13:24:52.412Z,2.05
2023-05-05T13:27:19.432Z,1.80
2023-05-05T13:29:45.869Z,1.60
2023-05-05T13:32:12.340Z,1.60
2023-05-05T13:34:38.749Z,2.65
2023-05-05T13:37:05.206Z,1.00
2023-05-05T13:39:31.610Z,1.55
2023-05-05T13:41:57.996Z,1.25
2023-05-05T13:44:24.452Z,0.88
2023-05-05T13:46:50.918Z,1.10
2023-05-05T13:49:17.318Z,1.65
2023-05-05T13:51:43.786Z,1.10
2023-05-05T13:54:10.310Z,0.82
2023-05-05T13:56:36.703Z,1.48
2023-05-05T13:59:03.083Z,1.73
2023-05-05T14:01:29.687Z,1.10
2023-05-05T14:03:57.484Z,1.52
2023-05-05T14:06:24.195Z,2.35
2023-05-05T14:08:50.630Z,1.17
2023-05-05T14:11:17.092Z,2.92
2023-05-05T14:13:43.521Z,1.30
2023-05-05T14:16:10.057Z,1.30
2023-05-05T14:18:36.637Z,1.83
2023-05-05T14:21:03.095Z,1.58
2023-05-05T14:23:29.551Z,3.47
2023-05-05T14:25:55.961Z,3.83
2023-05-05T14:28:22.358Z,2.30
2023-05-05T14:30:48.769Z,4.00
2023-05-05T14:33:15.208Z,1.73
2023-05-05T14:35:41.610Z,3.60
2023-05-05T14:38:08.115Z,1.33
2023-05-05T14:40:34.649Z,1.40
2023-05-05T14:43:01.154Z,2.90
2023-05-05T14:45:27.552Z,3.70
2023-05-05T14:47:54.001Z,1.98
2023-05-05T14:50:20.476Z,1.55
2023-05-05T14:52:46.900Z,1.98
2023-05-05T14:55:13.349Z,1.52
2023-05-05T14:57:39.789Z,1.45
2023-05-05T15:00:06.157Z,1.70
2023-05-05T15:02:32.584Z,1.95
2023-05-05T15:04:59.051Z,2.60
2023-05-05T15:07:25.496Z,2.33
2023-05-05T15:09:51.952Z,2.17
2023-05-05T15:12:18.383Z,2.63
2023-05-05T15:14:44.812Z,2.60
2023-05-05T15:17:11.263Z,1.33
2023-05-05T15:19:37.665Z,1.50
2023-05-05T15:22:04.121Z,1.55
2023-05-05T15:24:30.570Z,2.55
2023-05-05T15:26:57.062Z,1.40
2023-05-05T15:29:23.512Z,1.63
2023-05-05T15:31:49.955Z,2.15
2023-05-05T15:34:16.483Z,1.35
2023-05-05T15:36:42.942Z,1.15
2023-05-05T15:39:09.342Z,1.42
2023-05-05T15:41:35.782Z,1.70
2023-05-05T15:44:02.202Z,1.52
2023-05-05T15:46:28.663Z,2.13
2023-05-05T15:48:55.110Z,1.95
2023-05-05T15:51:21.490Z,2.05
2023-05-05T15:53:47.952Z,2.28
2023-05-05T15:56:14.349Z,1.67
2023-05-05T15:58:40.835Z,0.98
2023-05-05T16:01:07.311Z,2.22
2023-05-05T16:03:33.855Z,1.20
2023-05-05T16:06:00.325Z,2.13
2023-05-05T16:08:26.891Z,1.23
2023-05-05T16:10:53.370Z,2.20
2023-05-05T16:13:19.880Z,1.83
2023-05-05T16:15:46.451Z,1.10
2023-05-05T16:18:12.859Z,1.45
2023-05-05T16:20:39.305Z,2.03
2023-05-05T16:23:05.805Z,1.02
2023-05-05T16:25:32.256Z,1.77
2023-05-05T16:27:58.621Z,0.93
2023-05-05T16:30:25.023Z,1.30
2023-05-05T16:32:51.577Z,1.42
2023-05-05T16:35:18.066Z,0.60
2023-05-05T16:37:44.476Z,0.70
2023-05-05T16:40:11.044Z,0.70
2023-05-05T16:42:37.495Z,1.52
2023-05-05T16:45:03.868Z,1.05
2023-05-05T16:47:30.309Z,0.60
2023-05-05T16:49:56.780Z,0.77
2023-05-05T16:52:23.238Z,0.95
2023-05-05T16:54:49.653Z,0.88
2023-05-05T16:57:16.057Z,2.35
2023-05-05T16:59:42.515Z,0.70
2023-05-05T17:02:09.113Z,0.95
2023-05-05T17:04:35.715Z,0.60
2023-05-05T17:07:02.143Z,1.10
2023-05-05T17:09:28.843Z,0.80
2023-05-05T17:11:55.255Z,1.08
2023-05-05T17:14:21.646Z,1.02
2023-05-05T17:16:48.078Z,0.88
2023-05-05T17:19:14.516Z,0.82
2023-05-05T17:21:41.154Z,0.88
2023-05-05T17:24:07.557Z,1.30
2023-05-05T17:26:34.068Z,0.98
2023-05-05T17:29:00.460Z,1.60
2023-05-05T17:31:26.927Z,1.10
2023-05-05T17:33:53.411Z,0.95
2023-05-05T17:36:19.839Z,1.02
2023-05-05T17:38:46.300Z,1.30
2023-05-05T17:41:12.768Z,0.93
2023-05-05T17:43:39.173Z,1.35
2023-05-05T17:46:05.602Z,0.75
2023-05-05T17:48:32.075Z,0.70
2023-05-05T17:50:58.742Z,0.80
2023-05-05T17:53:25.217Z,1.08
2023-05-05T17:55:51.697Z,0.70
2023-05-05T17:58:18.095Z,1.63
2023-05-05T18:00:44.717Z,1.02
2023-05-05T18:03:11.404Z,1.73
2023-05-05T18:05:37.893Z,1.25
2023-05-05T18:08:04.322Z,1.50
2023-05-05T18:10:30.814Z,0.63
2023-05-05T18:12:57.278Z,1.17
2023-05-05T18:15:23.690Z,1.23
2023-05-05T18:17:50.084Z,0.70
2023-05-05T18:20:16.525Z,1.52
2023-05-05T18:22:42.910Z,0.77
2023-05-05T18:25:09.823Z,0.82
2023-05-05T18:27:36.414Z,0.98
2023-05-05T18:30:02.847Z,1.10
2023-05-05T18:32:29.441Z,1.05
2023-05-05T18:34:55.890Z,0.70
2023-05-05T18:37:22.398Z,0.98
2023-05-05T18:39:48.948Z,1.10
2023-05-05T18:42:15.426Z,0.80
2023-05-05T18:44:41.830Z,0.80
2023-05-05T18:47:08.504Z,0.98
2023-05-05T18:49:35.044Z,0.82
2023-05-05T18:52:01.446Z,0.73
2023-05-05T18:54:27.830Z,0.70
2023-05-05T18:56:54.256Z,0.93
2023-05-05T18:59:20.643Z,0.70
2023-05-05T19:01:47.035Z,0.82
2023-05-05T19:04:26.639Z,1.52
2023-05-05T19:06:56.371Z,0.90
2023-05-05T19:09:22.780Z,0.82
2023-05-05T19:11:49.152Z,0.88
2023-05-05T19:14:15.554Z,0.90
2023-05-05T19:16:41.999Z,1.77
2023-05-05T19:19:08.539Z,1.10
2023-05-05T19:21:34.993Z,1.75
2023-05-05T19:24:01.372Z,1.33
2023-05-05T19:26:27.945Z,1.10
2023-05-05T19:28:54.361Z,1.17
2023-05-05T19:31:20.894Z,3.35
2023-05-05T19:33:47.406Z,1.27
2023-05-05T19:36:13.834Z,1.30
2023-05-05T19:38:40.400Z,1.48
2023-05-05T19:41:06.834Z,1.17
2023-05-05T19:43:33.259Z,1.25
2023-05-05T19:45:59.726Z,1.05
2023-05-05T19:48:26.211Z,1.20
2023-05-05T19:50:52.660Z,1.33
2023-05-05T19:53:19.067Z,1.25
2023-05-05T19:55:45.521Z,0.82
2023-05-05T19:58:11.958Z,0.95
2023-05-05T20:00:39.577Z,0.93
2023-05-05T20:03:06.065Z,1.27
2023-05-05T20:05:32.486Z,1.40
2023-05-05T20:07:58.923Z,1.50
2023-05-05T20:10:25.335Z,1.70
2023-05-05T20:12:51.812Z,1.10
2023-05-05T20:15:18.296Z,1.67
2023-05-05T20:17:44.691Z,1.13
2023-05-05T20:20:11.337Z,1.20
2023-05-05T20:22:38.860Z,1.00
2023-05-05T20:25:06.954Z,1.30
2023-05-05T20:29:59.883Z,1.25
2023-05-05T20:32:26.357Z,0.98
2023-05-05T20:34:52.837Z,2.13
2023-05-05T20:37:19.361Z,1.10
2023-05-05T20:39:45.779Z,1.20
2023-05-05T20:42:12.169Z,0.80
2023-05-05T20:44:38.602Z,0.75
2023-05-05T20:47:05.122Z,0.70
2023-05-05T20:49:31.669Z,0.50
2023-05-05T20:51:58.057Z,0.70
2023-05-05T20:54:24.430Z,0.60
2023-05-05T20:56:50.894Z,1.52
2023-05-05T20:59:17.402Z,0.93
2023-05-05T21:01:43.926Z,0.60
2023-05-05T21:04:10.417Z,0.63
2023-05-05T21:06:36.853Z,1.00
2023-05-05T21:09:03.304Z,0.60
2023-05-05T21:11:29.769Z,0.95
2023-05-05T21:13:56.198Z,1.00
2023-05-05T21:16:22.659Z,1.60
2023-05-05T21:18:49.076Z,1.20
2023-05-05T21:21:15.535Z,0.98
2023-05-05T21:23:41.973Z,0.70
2023-05-05T21:26:08.376Z,0.63
2023-05-05T21:28:34.751Z,0.65
2023-05-05T21:31:20.653Z,0.60
2023-05-05T21:33:47.515Z,0.63
2023-05-05T21:36:13.891Z,0.50
2023-05-05T21:38:40.477Z,0.70
2023-05-05T21:41:06.936Z,0.65
2023-05-05T21:43:33.335Z,0.70
2023-05-05T21:45:59.852Z,1.02
2023-05-05T21:48:26.352Z,1.13
2023-05-05T21:50:52.816Z,1.63
2023-05-05T21:53:19.255Z,1.58
2023-05-05T21:55:45.643Z,1.42
2023-05-05T21:58:12.036Z,1.15
2023-05-05T22:00:38.440Z,1.40
2023-05-05T22:03:05.007Z,0.88
2023-05-05T22:05:31.476Z,0.75
2023-05-05T22:07:57.844Z,0.70
2023-05-05T22:10:24.257Z,0.77
2023-05-05T22:12:50.731Z,0.63
2023-05-05T22:15:17.176Z,0.50
2023-05-05T22:17:43.789Z,0.43
2023-05-05T22:20:10.448Z,0.60
2023-05-05T22:22:37.050Z,0.52
2023-05-05T22:25:03.442Z,0.60
2023-05-05T22:27:29.885Z,0.60
2023-05-05T22:29:56.319Z,0.73
2023-05-05T22:32:22.780Z,0.73
2023-05-05T22:34:49.253Z,1.13
2023-05-05T22:37:15.651Z,1.45
2023-05-05T22:39:42.090Z,1.50
2023-05-05T22:42:08.493Z,1.40
2023-05-05T22:44:34.888Z,1.00
2023-05-05T22:47:01.334Z,0.90
2023-05-05T22:49:27.785Z,1.25
2023-05-05T22:51:54.202Z,0.90
2023-05-05T22:54:20.576Z,1.13
2023-05-05T22:56:47.407Z,2.13
2023-05-05T22:59:13.769Z,1.23
2023-05-05T23:01:40.678Z,0.80
2023-05-05T23:04:07.215Z,1.77
2023-05-05T23:06:33.623Z,1.17
2023-05-05T23:09:00.038Z,1.10
2023-05-05T23:11:26.464Z,0.93
2023-05-05T23:13:52.842Z,1.00
2023-05-05T23:16:19.309Z,1.02
2023-05-05T23:18:45.741Z,0.98
2023-05-05T23:21:12.155Z,1.27
2023-05-05T23:23:38.621Z,0.80
2023-05-05T23:26:04.997Z,0.82
2023-05-05T23:28:31.457Z,1.15
2023-05-05T23:30:57.902Z,0.85
2023-05-05T23:33:24.402Z,1.40
2023-05-05T23:35:50.861Z,1.50
2023-05-05T23:38:17.238Z,2.25
2023-05-05T23:40:43.700Z,2.40
2023-05-05T23:43:10.143Z,2.17
2023-05-05T23:45:36.557Z,1.52
2023-05-05T23:48:03.006Z,1.23
2023-05-05T23:50:29.476Z,0.88
2023-05-05T23:52:55.880Z,1.02
2023-05-05T23:55:22.265Z,0.85
2023-05-05T23:57:48.688Z,1.20
